KROA/ROA METAR and TAF weather

Enter ICAO airport designator
Station Type Date Time Source
KROA METAR 2019/04/19 07:54 UTC NOAA

KROA 190754Z 17015G21KT 10SM FEW085 19/14 A2977 RMK AO2 SLP067 T01940139


Station Type Date Time Source
KROA Decoded METAR 2019/04/19 07:54 UTC NOAA

ROANOKE REGIONAL AIRPORT, VA, United States (KROA) 37-19N 079-58W 362M
Apr 19, 2019 - 03:54 AM EDT / 2019.04.19 0754 UTC
Wind: from the S (170 degrees) at 17 MPH (15 KT) gusting to 24 MPH (21 KT):0
Visibility: 10 mile(s):0
Sky conditions: mostly clear
Temperature: 66.9 F (19.4 C)
Dew Point: 57.0 F (13.9 C)
Relative Humidity: 70%
Pressure (altimeter): 29.77 in. Hg (1008 hPa)
ob: KROA 190754Z 17015G21KT 10SM FEW085 19/14 A2977 RMK AO2 SLP067 T01940139
cycle: 8

Station Type Date Time Source
KROA TAF 2019/04/19 06:34 UTC NOAA

TAF KROA 190531Z 1906/2006 19012G22KT P6SM SCT070 BKN250
TEMPO 1911/1914 2SM SHRA BR OVC008
FM191400 17010G20KT P6SM VCSH OVC040
FM191800 15015G25KT 5SM -SHRA BR VCTS SCT015 OVC045CB
FM192100 16010G20KT 3SM TSRA BR BKN025 OVC045CB
FM200000 19008KT 3SM SHRA BR OVC005 WS020/17045KT
FM200300 17008KT P6SM BKN017

Example: see airport list